Disclaimer

Please do not use the information listed here in-flight or in-navigation, as they are not provided to us by the airports but are provided by volunteers, so they might be outdated.

Search


Regions


Airport information page

Radio informations:
Tower (TWR) - 118.5 MHz
Ground (GND) - 121.75 MHz
RADAR - 124.8 MHz
INFO - 125.1 MHz

Airport informations:
Latitude: 53° 02' 51.00" N
Longitude: 008° 47' 12.00" E
Elevation: 14 feet - 4 meters
Operating hours: Remarks
Operating agency: Civil government, landing fees and diplomatic clearance may be required
Timezone: UTC+1(+2DT) - Last Sunday in March to last Sunday in October
Fuel: Jet A1, without icing nhibitor.

100/130 MIL Spec, low lead, aviation gasoline (BLUE)

Runway information:
05/23 - 2297 x 75 feet< - >700 x 23 meters
09/27 - 6693 x 148 feet< - >2040 x 45 meters

Recent METARs:
EDDW 170920Z 23015KT 9999 BKN017 05/03 Q0998 NOSIG
EDDW 170950Z 24014KT 9999 SCT017 05/03 Q0998 NOSIG
EDDW 171020Z 24013KT 9999 FEW017 05/03 Q0998 TEMPO 24015G25KT

Airport on the map: